Time;durP1;ratioP1;P1;durP2;ratioP2;P2;SDS_P1;SDS_P2;PMS_P1;PMS_P2;Temp;Humidity;BMP_temperature;BMP_pressure;BME280_temperature;BME280_humidity;BME280_pressure;Samples;Min_cycle;Max_cycle;Signal;HPM_P1;HPM_P2
2023/07/06 00:00:48;;;;;;;9.43;3.58;;;13.20;99.90;;;;;;5110836;28;20023;-78
2023/07/06 00:03:16;;;;;;;6.25;3.40;;;13.10;99.90;;;;;;5111915;27;20788;-78
2023/07/06 00:05:44;;;;;;;8.20;3.60;;;13.00;99.90;;;;;;5110261;27;20133;-79
2023/07/06 00:08:12;;;;;;;6.70;3.80;;;13.10;99.90;;;;;;5124051;27;20027;-79
2023/07/06 00:10:39;;;;;;;8.43;3.53;;;13.00;99.90;;;;;;5111534;28;20024;-80
2023/07/06 00:13:05;;;;;;;6.32;3.50;;;12.80;99.90;;;;;;5110677;28;20046;-80
2023/07/06 00:15:33;;;;;;;8.10;3.67;;;12.70;99.90;;;;;;5111687;28;20138;-76
2023/07/06 00:18:05;;;;;;;6.30;3.80;;;12.70;99.90;;;;;;5110924;28;20031;-79
2023/07/06 00:20:37;;;;;;;6.15;3.63;;;12.70;99.90;;;;;;5093814;28;20036;-79
2023/07/06 00:23:04;;;;;;;5.90;3.53;;;12.80;99.90;;;;;;5111319;28;20168;-80
2023/07/06 00:25:30;;;;;;;7.22;3.70;;;12.80;99.90;;;;;;5111972;28;20387;-79
2023/07/06 00:27:58;;;;;;;6.63;3.95;;;12.70;99.90;;;;;;5110604;28;20031;-80
2023/07/06 00:30:40;;;;;;;7.78;3.75;;;12.70;99.90;;;;;;5092706;28;20105;-77
2023/07/06 00:33:07;;;;;;;7.30;3.78;;;12.70;99.90;;;;;;5111159;28;20024;-79
2023/07/06 00:35:34;;;;;;;8.18;3.67;;;12.50;99.90;;;;;;5109480;28;20130;-77
2023/07/06 00:38:00;;;;;;;10.95;3.50;;;12.50;99.90;;;;;;5111001;27;20059;-78
2023/07/06 00:40:32;;;;;;;8.32;3.72;;;12.40;99.90;;;;;;5111129;28;20038;-78
2023/07/06 00:42:59;;;;;;;9.63;4.43;;;12.40;99.90;;;;;;5115085;27;20028;-79
2023/07/06 00:45:25;;;;;;;6.55;3.60;;;12.40;99.90;;;;;;5091521;28;20021;-78
2023/07/06 00:47:56;;;;;;;9.25;3.95;;;12.30;99.90;;;;;;5108595;28;20039;-77
2023/07/06 00:50:25;;;;;;;8.52;3.83;;;12.40;99.90;;;;;;5129057;27;20043;-78
2023/07/06 00:52:54;;;;;;;7.75;3.95;;;12.40;99.90;;;;;;5108656;28;20028;-77
2023/07/06 00:55:26;;;;;;;7.10;3.67;;;12.40;99.90;;;;;;5112241;27;20035;-77
2023/07/06 00:58:01;;;;;;;5.95;3.78;;;12.30;99.90;;;;;;5110714;28;20059;-79
2023/07/06 01:00:26;;;;;;;7.30;4.50;;;12.40;99.90;;;;;;5111447;28;20062;-77
2023/07/06 01:02:57;;;;;;;15.38;3.63;;;12.50;99.90;;;;;;5110662;28;20464;-80
2023/07/06 01:05:23;;;;;;;;;;;12.40;99.90;;;;;;5113136;27;20127;-79
2023/07/06 01:07:51;;;;;;;7.95;3.70;;;12.40;99.90;;;;;;5131629;27;19975;-77
2023/07/06 01:10:18;;;;;;;8.57;3.88;;;12.50;99.90;;;;;;5117805;27;20039;-78
2023/07/06 01:12:43;;;;;;;7.65;3.65;;;12.50;99.90;;;;;;5092248;28;20028;-80
2023/07/06 01:15:09;;;;;;;9.65;3.53;;;12.50;99.90;;;;;;5111070;28;20030;-77
2023/07/06 01:18:06;;;;;;;6.50;3.55;;;12.40;99.90;;;;;;5108885;28;20031;-75
2023/07/06 01:20:44;;;;;;;6.97;3.50;;;12.40;99.90;;;;;;5109829;28;20044;-78
2023/07/06 01:23:34;;;;;;;6.53;3.40;;;12.50;99.90;;;;;;5090928;28;20027;-81
2023/07/06 01:26:38;;;;;;;7.50;3.67;;;12.50;99.90;;;;;;5109654;28;20019;-78
2023/07/06 01:29:22;;;;;;;8.27;3.80;;;12.50;99.90;;;;;;5109756;27;20059;-77
2023/07/06 01:31:52;;;;;;;8.25;4.15;;;12.40;99.90;;;;;;5104940;28;20031;-80
2023/07/06 01:34:41;;;;;;;9.32;3.42;;;12.50;99.90;;;;;;5096357;28;20081;-81
2023/07/06 01:37:16;;;;;;;32.88;4.30;;;12.50;99.90;;;;;;5105573;28;20036;-77
2023/07/06 01:39:41;;;;;;;7.35;3.85;;;12.50;99.90;;;;;;5109864;28;20035;-78
2023/07/06 01:42:13;;;;;;;8.05;3.70;;;12.50;99.90;;;;;;5106717;28;20524;-78
2023/07/06 01:44:46;;;;;;;6.32;3.72;;;12.40;99.90;;;;;;5109452;28;20078;-74
2023/07/06 01:47:14;;;;;;;8.43;3.72;;;12.50;99.90;;;;;;5107981;27;20066;-80
2023/07/06 01:49:40;;;;;;;9.98;3.58;;;12.50;99.90;;;;;;5106872;28;20032;-77
2023/07/06 01:52:16;;;;;;;8.02;4.15;;;12.50;99.90;;;;;;5107803;28;20480;-80
2023/07/06 01:55:09;;;;;;;6.63;3.70;;;12.40;99.90;;;;;;5092537;28;20450;-79
2023/07/06 01:57:48;;;;;;;7.00;3.55;;;12.40;99.90;;;;;;5107783;28;20095;-81
2023/07/06 02:00:18;;;;;;;9.02;4.15;;;12.30;99.90;;;;;;5106484;28;20035;-75
2023/07/06 02:02:51;;;;;;;7.40;3.72;;;12.20;99.90;;;;;;5102690;28;20587;-78
2023/07/06 02:05:19;;;;;;;5.95;3.72;;;12.20;99.90;;;;;;5110405;28;20085;-80
2023/07/06 02:07:45;;;;;;;8.80;3.78;;;12.10;99.90;;;;;;5108332;28;20027;-79
2023/07/06 02:10:16;;;;;;;5.72;3.20;;;12.10;99.90;;;;;;5106991;28;20038;-81
2023/07/06 02:12:47;;;;;;;9.90;3.40;;;12.10;99.90;;;;;;5106085;28;20100;-74
2023/07/06 02:15:22;;;;;;;7.65;3.22;;;12.10;99.90;;;;;;5106390;28;20072;-79
2023/07/06 02:17:49;;;;;;;7.50;3.70;;;12.10;99.90;;;;;;5105618;28;20381;-79
2023/07/06 02:20:16;;;;;;;6.35;3.75;;;12.10;99.90;;;;;;5107904;28;20047;-80
2023/07/06 02:22:43;;;;;;;8.85;3.13;;;12.00;99.90;;;;;;5107647;28;20036;-74
2023/07/06 02:25:09;;;;;;;7.85;3.28;;;12.10;99.90;;;;;;5088032;28;20442;-78
2023/07/06 02:27:34;;;;;;;7.43;3.70;;;12.00;99.90;;;;;;5105541;28;20138;-76
2023/07/06 02:30:00;;;;;;;7.22;3.63;;;12.00;99.90;;;;;;5092743;28;20028;-76
2023/07/06 02:32:27;;;;;;;8.93;3.65;;;12.00;99.90;;;;;;5083666;28;20570;-75
2023/07/06 02:34:54;;;;;;;6.95;3.90;;;11.90;99.90;;;;;;5090187;28;20028;-76
2023/07/06 02:37:19;;;;;;;5.95;3.90;;;11.90;99.90;;;;;;5101722;28;20059;-77
2023/07/06 02:39:45;;;;;;;8.18;3.90;;;11.80;99.90;;;;;;5089569;28;20059;-74
2023/07/06 02:42:14;;;;;;;7.47;3.90;;;11.80;99.90;;;;;;5089753;28;20028;-77
2023/07/06 02:44:40;;;;;;;7.70;3.42;;;11.70;99.90;;;;;;5105525;28;20022;-76
2023/07/06 02:47:10;;;;;;;8.57;4.15;;;11.60;99.90;;;;;;5107331;28;20051;-76
2023/07/06 02:49:36;;;;;;;7.40;3.80;;;11.70;99.90;;;;;;5107125;28;20491;-76
2023/07/06 02:52:02;;;;;;;8.55;4.10;;;11.60;99.90;;;;;;5107070;28;20114;-75
2023/07/06 02:54:29;;;;;;;6.90;3.78;;;11.50;99.90;;;;;;5109218;27;20551;-77
2023/07/06 02:56:56;;;;;;;6.30;4.10;;;11.50;99.90;;;;;;5110565;27;20059;-78
2023/07/06 02:59:22;;;;;;;7.97;3.70;;;11.50;99.90;;;;;;5107119;28;20038;-77
2023/07/06 03:01:47;;;;;;;8.02;3.92;;;11.50;99.90;;;;;;5106032;28;20443;-76
2023/07/06 03:04:17;;;;;;;7.25;3.70;;;11.50;99.90;;;;;;5100897;28;20119;-75
2023/07/06 03:06:45;;;;;;;7.22;4.40;;;11.50;99.90;;;;;;5087279;28;20032;-74
2023/07/06 03:09:11;;;;;;;7.40;3.92;;;11.40;99.90;;;;;;5108313;28;20069;-76
2023/07/06 03:11:37;;;;;;;8.20;3.65;;;11.30;99.90;;;;;;5108216;28;20046;-75
2023/07/06 03:14:04;;;;;;;7.05;4.15;;;11.20;99.90;;;;;;5106686;28;20622;-76
2023/07/06 03:16:39;;;;;;;5.70;3.60;;;11.20;99.90;;;;;;5107433;28;20027;-76
2023/07/06 03:19:09;;;;;;;10.70;3.90;;;11.20;99.90;;;;;;5101507;28;20046;-76
2023/07/06 03:21:37;;;;;;;7.90;4.30;;;11.10;99.90;;;;;;5108447;28;20024;-76
2023/07/06 03:24:03;;;;;;;7.13;4.05;;;11.00;99.90;;;;;;5107470;28;20273;-75
2023/07/06 03:26:29;;;;;;;7.70;3.72;;;11.00;99.90;;;;;;5117598;28;20038;-77
2023/07/06 03:28:55;;;;;;;7.57;4.20;;;11.00;99.90;;;;;;5113485;28;20080;-76
2023/07/06 03:31:21;;;;;;;7.05;3.85;;;11.00;99.90;;;;;;5087671;28;20157;-76
2023/07/06 03:33:47;;;;;;;7.55;4.38;;;11.10;99.90;;;;;;5091184;28;20518;-78
2023/07/06 03:36:12;;;;;;;8.25;4.10;;;11.10;99.90;;;;;;5111868;28;20030;-76
2023/07/06 03:38:38;;;;;;;6.70;3.97;;;11.10;99.90;;;;;;5110633;28;20027;-77
2023/07/06 03:41:05;;;;;;;6.78;4.20;;;11.00;99.90;;;;;;5110231;28;20027;-76
2023/07/06 03:43:31;;;;;;;7.60;4.30;;;11.10;99.90;;;;;;5113073;28;20019;-77
2023/07/06 03:45:57;;;;;;;8.32;4.18;;;11.10;99.90;;;;;;5092650;28;20433;-75
2023/07/06 03:48:23;;;;;;;7.85;3.47;;;11.10;99.90;;;;;;5110866;28;20056;-76
2023/07/06 03:50:52;;;;;;;6.53;4.07;;;11.10;99.90;;;;;;5111479;28;20071;-75
2023/07/06 03:53:19;;;;;;;7.35;4.03;;;11.10;99.90;;;;;;5112354;28;20028;-75
2023/07/06 03:55:46;;;;;;;6.07;3.35;;;11.00;99.90;;;;;;5110219;28;20111;-75
2023/07/06 03:58:12;;;;;;;5.93;3.40;;;11.00;99.90;;;;;;5111624;28;20028;-75
2023/07/06 04:00:39;;;;;;;6.00;3.78;;;10.90;99.90;;;;;;5112172;28;20490;-75
2023/07/06 04:03:04;;;;;;;8.15;3.95;;;10.90;99.90;;;;;;5110794;28;20031;-76
2023/07/06 04:05:44;;;;;;;12.00;4.13;;;10.80;99.90;;;;;;5111847;28;20024;-76
2023/07/06 04:08:13;;;;;;;7.47;3.90;;;10.80;99.90;;;;;;5111344;28;20028;-74
2023/07/06 04:10:40;;;;;;;6.68;3.80;;;10.90;99.90;;;;;;5110249;28;20346;-75
2023/07/06 04:13:06;;;;;;;7.65;4.32;;;11.00;99.90;;;;;;5110863;28;20095;-77
2023/07/06 04:15:34;;;;;;;7.80;4.07;;;11.00;99.90;;;;;;5111753;28;20046;-76
2023/07/06 04:18:00;;;;;;;7.00;3.85;;;11.00;99.90;;;;;;5106671;28;20020;-75
2023/07/06 04:20:28;;;;;;;6.15;3.38;;;11.10;99.90;;;;;;5110159;28;20034;-77
2023/07/06 04:22:56;;;;;;;7.53;4.00;;;11.10;99.90;;;;;;5110297;28;20536;-76
2023/07/06 04:25:29;;;;;;;14.40;4.40;;;11.20;99.90;;;;;;5098363;27;20027;-74
2023/07/06 04:27:58;;;;;;;10.00;3.78;;;11.50;99.90;;;;;;5092108;28;20421;-76
2023/07/06 04:30:25;;;;;;;8.73;3.35;;;11.70;99.90;;;;;;5110506;28;20228;-75
2023/07/06 04:32:51;;;;;;;7.43;4.13;;;11.90;99.90;;;;;;5109879;28;20440;-75
2023/07/06 04:35:21;;;;;;;7.15;3.85;;;12.00;99.90;;;;;;5092138;28;20108;-75
2023/07/06 04:37:48;;;;;;;8.88;3.90;;;12.00;99.90;;;;;;5111147;28;20084;-73
2023/07/06 04:40:18;;;;;;;8.35;4.15;;;12.10;99.90;;;;;;5110164;28;20035;-76
2023/07/06 04:42:48;;;;;;;5.30;3.55;;;12.20;99.90;;;;;;5110599;28;20031;-76
2023/07/06 04:45:16;;;;;;;8.70;4.18;;;12.30;99.90;;;;;;5108230;28;20031;-77
2023/07/06 04:47:44;;;;;;;8.45;4.00;;;12.40;99.90;;;;;;5111070;28;20055;-76
2023/07/06 04:50:17;;;;;;;6.80;4.05;;;12.70;99.90;;;;;;5114640;27;20624;-74
2023/07/06 04:52:43;;;;;;;7.72;4.50;;;12.70;99.90;;;;;;5111950;27;20024;-76
2023/07/06 04:55:09;;;;;;;7.82;3.70;;;12.80;99.90;;;;;;5115901;27;20660;-77
2023/07/06 04:57:35;;;;;;;8.70;4.00;;;12.90;99.90;;;;;;5091211;28;20030;-77
2023/07/06 05:00:06;;;;;;;7.75;4.20;;;13.10;99.90;;;;;;5126726;27;20104;-74
2023/07/06 05:02:37;;;;;;;7.00;3.90;;;13.20;99.90;;;;;;5129080;27;20027;-77
2023/07/06 05:05:02;;;;;;;7.60;3.92;;;13.40;99.90;;;;;;5090414;28;20088;-76
2023/07/06 05:07:30;;;;;;;12.38;4.50;;;13.40;99.90;;;;;;5115743;27;20034;-74
2023/07/06 05:09:56;;;;;;;8.63;4.53;;;13.40;99.90;;;;;;5110344;27;20039;-74
2023/07/06 05:12:22;;;;;;;11.70;4.93;;;13.50;99.90;;;;;;5092858;28;20035;-76
2023/07/06 05:14:47;;;;;;;9.35;4.28;;;13.40;99.90;;;;;;5110387;28;20379;-75
2023/07/06 05:17:16;;;;;;;9.55;4.55;;;13.50;99.90;;;;;;5109795;28;20058;-75
2023/07/06 05:19:42;;;;;;;15.73;4.97;;;13.60;99.90;;;;;;5118709;27;20127;-77
2023/07/06 05:22:08;;;;;;;8.68;4.68;;;13.80;99.90;;;;;;5130645;27;20745;-76
2023/07/06 05:24:34;;;;;;;8.05;4.63;;;14.00;99.90;;;;;;5094986;27;20054;-74
2023/07/06 05:27:00;;;;;;;12.45;5.18;;;13.90;99.90;;;;;;5105571;27;20019;-75
2023/07/06 05:29:25;;;;;;;11.02;5.35;;;13.90;99.90;;;;;;5109622;28;20038;-76
2023/07/06 05:31:51;;;;;;;11.90;5.32;;;13.90;99.90;;;;;;5091191;28;20048;-76
2023/07/06 05:34:16;;;;;;;10.23;5.22;;;13.90;99.90;;;;;;5106583;28;20106;-76
2023/07/06 05:36:42;;;;;;;11.07;5.97;;;14.00;99.90;;;;;;5110855;28;20034;-76
2023/07/06 05:39:08;;;;;;;9.52;5.63;;;13.90;99.90;;;;;;5088927;28;20552;-75
2023/07/06 05:41:33;;;;;;;9.75;4.93;;;13.90;99.90;;;;;;5109143;28;20063;-75
2023/07/06 05:43:59;;;;;;;10.63;5.05;;;14.00;99.90;;;;;;5108288;28;20028;-76
2023/07/06 05:46:25;;;;;;;8.40;5.00;;;14.20;99.90;;;;;;5107088;28;20038;-77
2023/07/06 05:48:53;;;;;;;10.82;5.28;;;14.40;99.90;;;;;;5102129;28;20028;-73
2023/07/06 05:51:19;;;;;;;8.15;4.88;;;14.60;99.90;;;;;;5108886;27;20075;-76
2023/07/06 05:53:45;;;;;;;8.68;5.22;;;14.80;99.90;;;;;;5115361;27;20027;-78
2023/07/06 05:56:13;;;;;;;9.50;4.45;;;14.90;99.90;;;;;;5107031;28;20668;-73
2023/07/06 05:58:38;;;;;;;11.15;5.07;;;15.10;99.90;;;;;;5103468;28;20027;-74
2023/07/06 06:01:04;;;;;;;9.32;5.03;;;15.30;99.90;;;;;;5102897;28;20058;-74
2023/07/06 06:03:30;;;;;;;12.80;5.10;;;15.60;99.90;;;;;;5098609;27;20024;-74
2023/07/06 06:05:55;;;;;;;13.43;4.80;;;15.80;99.90;;;;;;5105694;27;20027;-72
2023/07/06 06:08:21;;;;;;;9.10;4.53;;;15.80;99.90;;;;;;5112186;27;20132;-72
2023/07/06 06:10:51;;;;;;;11.57;5.25;;;15.80;99.90;;;;;;5108056;27;20047;-73
2023/07/06 06:13:17;;;;;;;8.93;5.05;;;15.90;99.90;;;;;;5108754;28;20611;-73
2023/07/06 06:15:42;;;;;;;11.82;4.85;;;16.00;99.90;;;;;;5109848;28;20027;-74
2023/07/06 06:18:09;;;;;;;13.15;4.90;;;16.20;99.90;;;;;;5108756;28;20104;-74
2023/07/06 06:20:38;;;;;;;9.25;4.68;;;16.30;99.90;;;;;;5109977;28;20039;-74
2023/07/06 06:23:06;;;;;;;8.95;4.38;;;16.50;99.90;;;;;;5109371;28;20045;-73
2023/07/06 06:25:31;;;;;;;10.32;4.45;;;16.60;99.90;;;;;;5110029;28;20028;-74
2023/07/06 06:27:57;;;;;;;7.13;4.05;;;16.90;99.90;;;;;;5108974;28;20030;-74
2023/07/06 06:30:23;;;;;;;10.43;4.45;;;17.10;99.90;;;;;;5109803;28;20028;-74
2023/07/06 06:32:49;;;;;;;8.88;3.67;;;17.20;99.90;;;;;;5109669;28;20028;-75
2023/07/06 06:35:21;;;;;;;8.43;3.80;;;17.30;99.90;;;;;;5109066;28;20016;-73
2023/07/06 06:37:47;;;;;;;10.35;4.00;;;17.50;99.90;;;;;;5109732;28;20539;-74
2023/07/06 06:40:12;;;;;;;6.90;3.88;;;17.60;99.90;;;;;;5109657;27;20040;-73
2023/07/06 06:42:39;;;;;;;4.53;3.10;;;17.80;99.90;;;;;;5128026;27;20061;-74
2023/07/06 06:45:06;;;;;;;8.95;4.07;;;18.00;99.90;;;;;;5129407;27;20367;-74
2023/07/06 06:47:32;;;;;;;9.40;3.33;;;18.00;99.90;;;;;;5121227;27;20131;-72
2023/07/06 06:49:58;;;;;;;5.45;3.28;;;18.00;99.90;;;;;;5108724;28;20123;-72
2023/07/06 06:52:25;;;;;;;9.85;3.17;;;18.30;99.90;;;;;;5091368;28;20653;-74
2023/07/06 06:54:51;;;;;;;9.02;3.22;;;18.40;99.90;;;;;;5109575;28;20024;-74
2023/07/06 06:57:17;;;;;;;6.28;2.97;;;18.30;99.90;;;;;;5106245;28;20027;-74
2023/07/06 06:59:43;;;;;;;6.97;2.90;;;18.50;99.90;;;;;;5103272;28;20028;-74
2023/07/06 07:02:09;;;;;;;7.00;2.70;;;18.70;99.90;;;;;;5101641;28;20032;-73
2023/07/06 07:04:35;;;;;;;8.73;2.97;;;19.00;99.90;;;;;;5099821;28;20516;-74
2023/07/06 07:07:03;;;;;;;6.45;2.40;;;19.10;99.90;;;;;;5100418;28;20027;-74
2023/07/06 07:09:29;;;;;;;7.45;2.38;;;19.20;99.90;;;;;;5102461;27;20139;-75
2023/07/06 07:11:55;;;;;;;4.95;2.78;;;19.40;99.90;;;;;;5095099;28;20057;-72
2023/07/06 07:14:21;;;;;;;8.15;2.55;;;19.60;99.90;;;;;;5107484;28;20428;-74
2023/07/06 07:16:47;;;;;;;6.45;2.90;;;19.70;99.90;;;;;;5106855;28;20027;-74
2023/07/06 07:19:14;;;;;;;5.03;2.53;;;19.60;99.90;;;;;;5123691;28;20830;-74
2023/07/06 07:21:40;;;;;;;5.40;2.80;;;19.70;99.90;;;;;;5108342;28;20024;-73
2023/07/06 07:24:05;;;;;;;7.45;2.80;;;19.80;99.90;;;;;;5110865;28;20019;-74
2023/07/06 07:26:31;;;;;;;5.63;2.80;;;19.90;99.90;;;;;;5116786;28;20070;-79
2023/07/06 07:28:57;;;;;;;6.13;2.42;;;19.90;99.90;;;;;;5104716;28;20051;-79
2023/07/06 07:31:25;;;;;;;3.75;1.90;;;19.90;99.90;;;;;;5106287;28;20047;-78
2023/07/06 07:33:50;;;;;;;5.03;2.15;;;20.00;99.90;;;;;;5105485;28;20047;-78
2023/07/06 07:36:18;;;;;;;8.57;2.63;;;20.10;99.90;;;;;;5104742;28;20062;-78
2023/07/06 07:38:44;;;;;;;4.35;2.20;;;20.20;99.20;;;;;;5108739;28;20036;-77
2023/07/06 07:41:11;;;;;;;6.93;2.53;;;20.50;98.80;;;;;;5108981;28;20369;-78
2023/07/06 07:43:41;;;;;;;3.85;2.10;;;20.70;97.40;;;;;;5129429;28;20038;-79
2023/07/06 07:46:09;;;;;;;;;;;20.70;96.60;;;;;;5129201;28;20495;-79
2023/07/06 07:48:39;;;;;;;5.43;2.28;;;20.70;97.30;;;;;;5111394;28;20010;-79
2023/07/06 07:51:10;;;;;;;16.13;2.40;;;20.80;97.80;;;;;;5108031;28;20039;-78
2023/07/06 07:53:37;;;;;;;;;;;20.90;96.20;;;;;;5109154;28;20024;-78
2023/07/06 07:56:06;;;;;;;7.78;2.45;;;20.70;96.10;;;;;;5108097;28;19908;-78
2023/07/06 07:58:36;;;;;;;6.13;2.95;;;20.50;96.40;;;;;;5108672;28;20445;-80
2023/07/06 08:01:06;;;;;;;8.07;2.47;;;20.40;95.10;;;;;;5089695;28;20481;-77
2023/07/06 08:03:33;;;;;;;6.32;2.35;;;20.50;95.50;;;;;;5108837;28;20040;-78
2023/07/06 08:06:05;;;;;;;7.05;2.63;;;20.60;95.00;;;;;;5108433;28;20031;-80
2023/07/06 08:08:35;;;;;;;6.47;2.63;;;20.80;96.40;;;;;;5108936;28;20023;-81
2023/07/06 08:11:06;;;;;;;4.15;2.45;;;20.90;95.40;;;;;;5107365;28;20031;-78
2023/07/06 08:13:34;;;;;;;5.60;2.63;;;20.80;96.10;;;;;;5103357;28;20044;-76
2023/07/06 08:16:00;;;;;;;6.35;2.50;;;20.90;96.10;;;;;;5093298;28;20076;-78
2023/07/06 08:18:26;;;;;;;6.45;3.03;;;21.10;94.30;;;;;;5108011;28;20035;-78
2023/07/06 08:20:53;;;;;;;4.68;2.63;;;21.10;95.00;;;;;;5111665;28;20040;-78
2023/07/06 08:23:21;;;;;;;8.60;2.80;;;21.30;95.70;;;;;;5127248;27;20605;-79
2023/07/06 08:25:49;;;;;;;5.18;2.78;;;21.50;93.40;;;;;;5112359;28;20024;-77
2023/07/06 08:28:15;;;;;;;8.20;2.50;;;21.60;92.80;;;;;;5111522;28;20066;-79
2023/07/06 08:30:42;;;;;;;5.60;2.53;;;21.70;92.50;;;;;;5111962;28;20063;-79
2023/07/06 08:33:10;;;;;;;8.68;2.67;;;22.00;91.90;;;;;;5110556;28;20084;-80
2023/07/06 08:35:45;;;;;;;12.00;3.10;;;22.20;92.30;;;;;;5112107;28;20035;-78
2023/07/06 08:38:13;;;;;;;4.68;2.50;;;22.10;92.40;;;;;;5111521;28;20023;-80
2023/07/06 08:40:40;;;;;;;5.55;2.65;;;22.10;92.50;;;;;;5111850;28;20724;-80
2023/07/06 08:43:18;;;;;;;4.90;2.67;;;22.30;92.40;;;;;;5121152;27;20371;-80
2023/07/06 08:45:48;;;;;;;6.20;2.85;;;22.40;90.60;;;;;;5130571;27;20042;-78
2023/07/06 08:48:18;;;;;;;;;;;22.40;91.50;;;;;;5117198;27;20044;-79
2023/07/06 08:50:57;;;;;;;5.18;2.78;;;22.20;91.80;;;;;;5111666;28;19920;-77
2023/07/06 08:53:32;;;;;;;9.23;2.60;;;22.40;90.40;;;;;;5092651;28;20046;-79
2023/07/06 08:56:00;;;;;;;6.63;3.00;;;22.40;90.50;;;;;;5092384;28;20486;-78
2023/07/06 08:58:30;;;;;;;4.97;2.80;;;22.50;90.00;;;;;;5117999;27;20481;-79
2023/07/06 09:01:10;;;;;;;6.90;2.88;;;22.60;90.20;;;;;;5132156;27;20080;-80
2023/07/06 09:03:44;;;;;;;4.20;2.70;;;22.70;91.20;;;;;;5131378;27;20504;-77
2023/07/06 09:06:18;;;;;;;7.82;2.85;;;22.60;90.30;;;;;;5131285;27;20522;-79
2023/07/06 09:08:48;;;;;;;6.63;2.83;;;22.80;92.10;;;;;;5132194;27;20108;-79
2023/07/06 09:11:15;;;;;;;5.10;2.78;;;22.90;88.00;;;;;;5131287;27;20031;-78
2023/07/06 09:13:49;;;;;;;8.93;3.25;;;22.60;90.60;;;;;;5132008;27;20034;-79
2023/07/06 09:16:18;;;;;;;7.28;3.20;;;22.20;88.40;;;;;;5130826;27;20053;-77
2023/07/06 09:18:44;;;;;;;7.05;2.85;;;22.10;89.60;;;;;;5113265;27;20096;-78
2023/07/06 09:21:10;;;;;;;7.07;3.10;;;21.80;91.60;;;;;;5092122;28;20031;-78
2023/07/06 09:23:35;;;;;;;6.38;2.90;;;22.20;90.50;;;;;;5126530;27;20030;-78
2023/07/06 09:26:06;;;;;;;11.98;3.00;;;22.70;86.30;;;;;;5111218;28;20027;-78
2023/07/06 09:28:33;;;;;;;7.40;3.28;;;23.00;84.40;;;;;;5118261;27;20031;-77
2023/07/06 09:31:09;;;;;;;5.32;2.90;;;23.00;86.20;;;;;;5089897;28;20469;-77
2023/07/06 09:33:41;;;;;;;10.68;3.22;;;23.10;86.40;;;;;;5090565;28;20024;-79
2023/07/06 09:36:16;;;;;;;6.57;2.95;;;23.20;87.80;;;;;;5089731;28;20115;-80
2023/07/06 09:38:45;;;;;;;6.00;3.17;;;23.70;83.10;;;;;;5106291;28;20743;-78
2023/07/06 09:41:27;;;;;;;6.63;3.28;;;24.10;82.80;;;;;;5089860;28;20027;-74
2023/07/06 09:43:58;;;;;;;9.20;2.80;;;24.00;79.60;;;;;;5072249;28;20032;-74
2023/07/06 09:46:32;;;;;;;7.40;3.08;;;23.50;81.50;;;;;;5071199;28;20664;-78
2023/07/06 09:48:59;;;;;;;6.80;2.90;;;23.00;83.80;;;;;;5090231;28;20032;-76
2023/07/06 09:51:31;;;;;;;6.95;2.90;;;22.50;83.90;;;;;;5089424;28;20028;-79
2023/07/06 09:54:29;;;;;;;7.72;2.72;;;22.10;85.00;;;;;;5090325;28;20035;-75
2023/07/06 09:56:54;;;;;;;5.28;3.03;;;21.90;83.70;;;;;;5019471;28;20036;-77
2023/07/06 09:59:20;;;;;;;6.47;2.72;;;22.30;83.90;;;;;;5118312;27;20034;-76
2023/07/06 10:01:49;;;;;;;6.28;3.20;;;23.00;84.30;;;;;;5130925;27;20461;-78
2023/07/06 10:04:23;;;;;;;5.03;2.97;;;23.60;81.30;;;;;;5114695;27;20039;-77
2023/07/06 10:07:23;;;;;;;7.03;3.05;;;23.80;79.00;;;;;;5110252;28;20036;-79
2023/07/06 10:09:49;;;;;;;6.23;3.30;;;23.60;78.00;;;;;;5110288;28;20543;-77
2023/07/06 10:12:24;;;;;;;6.47;2.78;;;23.80;81.20;;;;;;5109246;28;20276;-76
2023/07/06 10:14:51;;;;;;;8.63;3.28;;;23.50;80.10;;;;;;5116975;27;20111;-77
2023/07/06 10:17:37;;;;;;;7.90;3.00;;;23.60;79.20;;;;;;5123199;27;20042;-78
2023/07/06 10:20:18;;;;;;;6.72;3.00;;;23.70;79.00;;;;;;5109964;28;20039;-77
2023/07/06 10:23:05;;;;;;;10.52;3.53;;;23.90;77.80;;;;;;5109813;28;20431;-81
2023/07/06 10:25:39;;;;;;;10.15;3.60;;;23.50;78.10;;;;;;5109534;28;20065;-77
2023/07/06 10:28:11;;;;;;;6.00;2.85;;;22.90;78.70;;;;;;5110290;28;20487;-76
2023/07/06 10:30:45;;;;;;;4.82;3.00;;;22.70;81.50;;;;;;5110124;28;20447;-78
2023/07/06 10:33:24;;;;;;;6.72;3.10;;;23.20;79.80;;;;;;5108896;28;20459;-75
2023/07/06 10:35:52;;;;;;;7.97;3.05;;;23.80;73.70;;;;;;5109924;28;20028;-78
2023/07/06 10:38:19;;;;;;;5.18;2.88;;;23.90;71.90;;;;;;5109058;28;20068;-78
2023/07/06 10:40:51;;;;;;;8.80;3.03;;;23.60;72.80;;;;;;5091370;28;20086;-78
2023/07/06 10:43:21;;;;;;;7.68;3.40;;;23.20;73.70;;;;;;5108232;28;20023;-76
2023/07/06 10:45:56;;;;;;;4.80;2.72;;;22.70;76.70;;;;;;5124464;27;20075;-78
2023/07/06 10:48:24;;;;;;;4.90;2.90;;;23.10;75.00;;;;;;5098985;28;20108;-75
2023/07/06 10:51:17;;;;;;;5.03;2.83;;;23.70;75.80;;;;;;5104895;28;20032;-75
2023/07/06 10:53:51;;;;;;;9.68;3.17;;;24.10;67.70;;;;;;5083638;28;20036;-76
2023/07/06 10:56:22;;;;;;;6.18;3.00;;;24.30;72.80;;;;;;5088320;28;20538;-76
2023/07/06 10:58:54;;;;;;;6.00;3.08;;;24.70;70.60;;;;;;5089185;28;20020;-79
2023/07/06 11:01:22;;;;;;;9.25;3.92;;;24.90;69.00;;;;;;5088248;28;20110;-77
2023/07/06 11:03:48;;;;;;;5.38;2.97;;;25.00;69.50;;;;;;5088839;28;20031;-76
2023/07/06 11:06:36;;;;;;;7.75;2.90;;;24.60;68.70;;;;;;5088282;28;20028;-78
2023/07/06 11:09:14;;;;;;;7.82;2.75;;;24.40;64.70;;;;;;5088694;28;20092;-79
2023/07/06 11:12:03;;;;;;;6.43;3.20;;;24.60;66.50;;;;;;5089050;28;20126;-77
2023/07/06 11:14:33;;;;;;;5.88;3.08;;;24.60;67.80;;;;;;5088339;28;20017;-76
2023/07/06 11:17:03;;;;;;;5.72;3.00;;;25.00;64.90;;;;;;5095909;28;20016;-76
2023/07/06 11:19:36;;;;;;;4.45;2.80;;;25.40;64.70;;;;;;5108358;28;20131;-79
2023/07/06 11:22:11;;;;;;;4.82;3.00;;;25.80;67.30;;;;;;5091076;28;20023;-74
2023/07/06 11:24:48;;;;;;;5.20;2.80;;;26.20;65.10;;;;;;5109749;28;20026;-74
2023/07/06 11:27:26;;;;;;;8.38;3.25;;;25.40;67.20;;;;;;5108199;28;20487;-78
2023/07/06 11:29:59;;;;;;;4.82;2.70;;;25.00;65.30;;;;;;5109134;28;20038;-77
2023/07/06 11:32:36;;;;;;;4.35;2.63;;;24.90;64.90;;;;;;5089855;28;20028;-78
2023/07/06 11:35:12;;;;;;;6.32;2.92;;;25.10;64.60;;;;;;5108780;28;20040;-75
2023/07/06 11:38:05;;;;;;;5.25;2.80;;;25.10;62.70;;;;;;5109368;28;20015;-76
2023/07/06 11:40:30;;;;;;;5.90;3.00;;;25.00;61.90;;;;;;5108386;28;20039;-75
2023/07/06 11:42:59;;;;;;;5.78;2.63;;;24.70;63.30;;;;;;5124688;28;20073;-77
2023/07/06 11:45:39;;;;;;;5.90;2.85;;;24.30;62.80;;;;;;5108391;28;20059;-76
2023/07/06 11:48:26;;;;;;;14.75;3.10;;;24.60;64.00;;;;;;5123718;27;20742;-77
2023/07/06 11:50:54;;;;;;;5.47;2.88;;;24.90;61.50;;;;;;5112592;28;20147;-74
2023/07/06 11:56:19;;;;;;;4.68;2.60;;;24.10;63.00;;;;;;5132843;27;20062;-76
2023/07/06 11:58:59;;;;;;;5.82;3.00;;;23.70;64.20;;;;;;5133210;27;20528;-78
2023/07/06 12:04:10;;;;;;;5.18;3.13;;;23.10;66.60;;;;;;5133178;27;20035;-74
2023/07/06 12:06:37;;;;;;;5.70;2.70;;;23.40;66.50;;;;;;5132496;27;20112;-78
2023/07/06 12:09:06;;;;;;;6.40;3.05;;;23.90;66.60;;;;;;5133171;27;20459;-77
2023/07/06 12:11:33;;;;;;;6.20;2.90;;;24.20;66.70;;;;;;5113760;27;20031;-77
2023/07/06 12:14:00;;;;;;;6.45;2.97;;;24.80;64.20;;;;;;5133082;27;20031;-74
2023/07/06 12:16:41;;;;;;;6.57;3.15;;;25.20;62.00;;;;;;5129671;27;20019;-79
2023/07/06 12:19:10;;;;;;;;;;;25.30;63.40;;;;;;5092391;28;20125;-74
2023/07/06 12:21:50;;;;;;;5.82;3.10;;;26.00;64.40;;;;;;5091139;28;19900;-77
2023/07/06 12:24:20;;;;;;;;;;;25.60;58.40;;;;;;5091960;28;20027;-79
2023/07/06 12:26:58;;;;;;;8.20;3.22;;;25.30;58.60;;;;;;5073698;28;19930;-76
2023/07/06 12:29:27;;;;;;;11.85;3.00;;;25.50;61.80;;;;;;5090896;28;20042;-76
2023/07/06 12:31:57;;;;;;;6.00;3.50;;;26.20;58.60;;;;;;5091789;28;20035;-76
2023/07/06 12:34:32;;;;;;;6.40;2.90;;;26.60;56.50;;;;;;5090896;28;20024;-76
2023/07/06 12:37:00;;;;;;;7.10;3.08;;;26.80;59.10;;;;;;5073549;28;20384;-77
2023/07/06 12:39:30;;;;;;;11.02;3.10;;;27.10;63.10;;;;;;5090733;28;20020;-75
2023/07/06 12:41:56;;;;;;;6.45;3.35;;;27.10;54.80;;;;;;5091488;28;20387;-76
2023/07/06 12:44:27;;;;;;;6.22;3.20;;;26.60;57.00;;;;;;5090860;28;20058;-74
2023/07/06 12:46:58;;;;;;;5.75;3.28;;;26.30;59.00;;;;;;5096875;28;20106;-75
2023/07/06 12:49:23;;;;;;;5.88;3.22;;;26.10;60.20;;;;;;5110899;28;20088;-76
2023/07/06 12:51:54;;;;;;;8.77;3.60;;;25.80;58.50;;;;;;5111812;28;20031;-76
2023/07/06 12:54:23;;;;;;;5.28;3.22;;;25.30;56.90;;;;;;5092652;28;20035;-76
2023/07/06 12:57:00;;;;;;;7.95;3.30;;;24.80;57.80;;;;;;5093335;28;20024;-78
2023/07/06 12:59:32;;;;;;;4.50;3.20;;;25.30;58.30;;;;;;5111117;28;20054;-76
2023/07/06 13:01:59;;;;;;;4.90;3.08;;;26.10;57.80;;;;;;5111422;28;20356;-77
2023/07/06 13:04:40;;;;;;;8.73;3.22;;;26.70;54.80;;;;;;5110576;28;20028;-79
2023/07/06 13:07:08;;;;;;;8.45;3.08;;;27.00;56.20;;;;;;5091958;28;20031;-77